createdAt,value
2022-09-28T00:01:24.956Z,100739.25
2022-09-28T00:03:54.959Z,100736.63
2022-09-28T00:06:27.112Z,100726.13
2022-09-28T00:08:55.049Z,100720.78
2022-09-28T00:11:24.415Z,100721.72
2022-09-28T00:13:53.561Z,100703.34
2022-09-28T00:16:24.303Z,100706.84
2022-09-28T00:18:52.467Z,100711.25
2022-09-28T00:21:22.522Z,100696.31
2022-09-28T00:24:12.141Z,100687.56
2022-09-28T00:26:54.393Z,100707.75
2022-09-28T00:29:31.781Z,100701.59
2022-09-28T00:32:02.703Z,100680.56
2022-09-28T00:34:32.211Z,100702.47
2022-09-28T00:37:00.909Z,100703.38
2022-09-28T00:39:28.052Z,100704.25
2022-09-28T00:41:55.632Z,100694.63
2022-09-28T00:44:32.273Z,100699.03
2022-09-28T00:47:20.458Z,100702.53
2022-09-28T00:49:58.024Z,100691.19
2022-09-28T00:52:50.046Z,100704.31
2022-09-28T00:55:22.131Z,100700.78
2022-09-28T00:57:56.221Z,100694.63
2022-09-28T01:00:23.511Z,100691.19
2022-09-28T01:02:51.019Z,100687.63
2022-09-28T01:05:19.166Z,100695.53
2022-09-28T01:07:47.248Z,100675.38
2022-09-28T01:10:14.679Z,100681.50
2022-09-28T01:12:41.832Z,100672.72
2022-09-28T01:15:09.841Z,100687.63
2022-09-28T01:17:59.048Z,100690.31
2022-09-28T01:21:22.503Z,100684.19
2022-09-28T01:24:04.288Z,100686.78
2022-09-28T01:27:05.888Z,100666.59
2022-09-28T01:29:59.748Z,100665.69
2022-09-28T01:32:39.707Z,100671.88
2022-09-28T01:35:17.615Z,100656.13
2022-09-28T01:37:47.577Z,100663.16
2022-09-28T01:40:16.317Z,100652.66
2022-09-28T01:42:47.149Z,100638.63
2022-09-28T01:45:25.659Z,100627.25
2022-09-28T01:47:58.493Z,100631.66
2022-09-28T01:50:29.525Z,100628.16
2022-09-28T01:53:06.494Z,100632.53
2022-09-28T01:55:47.029Z,100637.78
2022-09-28T01:58:44.645Z,100630.78
2022-09-28T02:01:25.565Z,100616.72
2022-09-28T02:04:03.455Z,100617.63
2022-09-28T02:06:39.174Z,100618.50
2022-09-28T02:09:14.164Z,100611.47
2022-09-28T02:11:54.012Z,100618.50
2022-09-28T02:14:22.830Z,100607.13
2022-09-28T02:16:54.574Z,100613.22
2022-09-28T02:19:29.887Z,100605.38
2022-09-28T02:22:03.478Z,100605.38
2022-09-28T02:24:33.731Z,100611.50
2022-09-28T02:27:06.281Z,100599.19
2022-09-28T02:29:34.724Z,100593.94
2022-09-28T02:32:02.044Z,100597.47
2022-09-28T02:34:29.335Z,100593.91
2022-09-28T02:36:56.668Z,100593.91
2022-09-28T02:39:24.329Z,100569.34
2022-09-28T02:42:20.589Z,100594.75
2022-09-28T02:44:59.101Z,100589.44
2022-09-28T02:47:34.048Z,100599.09
2022-09-28T02:50:07.731Z,100597.34
2022-09-28T02:53:08.082Z,100591.13
2022-09-28T02:56:06.733Z,100598.19
2022-09-28T02:58:53.020Z,100580.63
2022-09-28T03:01:41.074Z,100582.41
2022-09-28T03:04:17.314Z,100584.19
2022-09-28T03:06:53.774Z,100577.19
2022-09-28T03:09:40.383Z,100559.66
2022-09-28T03:12:11.652Z,100563.16
2022-09-28T03:14:38.950Z,100561.34
2022-09-28T03:17:06.789Z,100552.53
2022-09-28T03:19:35.108Z,100552.53
2022-09-28T03:22:02.647Z,100546.38
2022-09-28T03:24:29.891Z,100548.13
2022-09-28T03:26:57.075Z,100552.56
2022-09-28T03:29:24.326Z,100560.44
2022-09-28T03:31:57.960Z,100541.13
2022-09-28T03:34:25.141Z,100531.44
2022-09-28T03:36:52.246Z,100544.63
2022-09-28T03:39:19.419Z,100539.34
2022-09-28T03:41:46.540Z,100555.16
2022-09-28T03:44:13.957Z,100541.19
2022-09-28T03:46:41.220Z,100554.34
2022-09-28T03:49:10.646Z,100546.47
2022-09-28T03:51:37.775Z,100515.00
2022-09-28T03:54:05.329Z,100545.63
2022-09-28T03:56:32.419Z,100545.66
2022-09-28T03:58:59.774Z,100538.66
2022-09-28T04:01:27.447Z,100529.91
2022-09-28T04:03:58.642Z,100549.16
2022-09-28T04:06:26.415Z,100536.00
2022-09-28T04:08:53.750Z,100543.94
2022-09-28T04:11:21.353Z,100547.47
2022-09-28T04:13:52.759Z,100539.56
2022-09-28T04:16:20.238Z,100530.78
2022-09-28T04:19:09.707Z,100538.69
2022-09-28T04:21:46.217Z,100538.69
2022-09-28T04:24:14.865Z,100528.06
2022-09-28T04:26:41.994Z,100538.56
2022-09-28T04:29:18.363Z,100537.75
2022-09-28T04:31:56.816Z,100514.09
2022-09-28T04:34:37.117Z,100526.34
2022-09-28T04:37:06.174Z,100514.88
2022-09-28T04:39:33.285Z,100519.25
2022-09-28T04:42:01.441Z,100510.47
2022-09-28T04:44:29.477Z,100505.25
2022-09-28T04:47:04.356Z,100507.88
2022-09-28T04:49:40.372Z,100479.88
2022-09-28T04:52:15.799Z,100500.84
2022-09-28T04:54:46.120Z,100501.72
2022-09-28T04:57:14.218Z,100477.22
2022-09-28T04:59:45.144Z,100498.22
2022-09-28T05:02:15.766Z,100495.59
2022-09-28T05:05:19.348Z,100479.78
2022-09-28T05:08:17.745Z,100464.91
2022-09-28T05:10:45.831Z,100460.44
2022-09-28T05:13:14.518Z,100450.81
2022-09-28T05:15:43.443Z,100458.66
2022-09-28T05:18:14.426Z,100441.16
2022-09-28T05:20:47.969Z,100468.31
2022-09-28T05:23:15.764Z,100462.16
2022-09-28T05:25:45.570Z,100472.69
2022-09-28T05:28:29.054Z,100474.38
2022-09-28T05:31:34.414Z,100465.66
2022-09-28T05:34:12.663Z,100470.84
2022-09-28T05:36:41.586Z,100461.16
2022-09-28T05:39:09.990Z,100461.16
2022-09-28T05:41:37.145Z,100454.16
2022-09-28T05:44:05.506Z,100450.63
2022-09-28T05:46:32.618Z,100453.16
2022-09-28T05:49:01.953Z,100460.22
2022-09-28T05:51:29.326Z,100471.59
2022-09-28T05:53:58.884Z,100460.22
2022-09-28T05:56:31.510Z,100460.22
2022-09-28T05:58:58.959Z,100471.59
2022-09-28T06:01:29.177Z,100466.34
2022-09-28T06:03:58.280Z,100454.94
2022-09-28T06:06:26.107Z,100454.09
2022-09-28T06:08:53.324Z,100460.22
2022-09-28T06:11:39.184Z,100445.28
2022-09-28T06:14:14.529Z,100455.81
2022-09-28T06:16:43.961Z,100457.56
2022-09-28T06:19:12.826Z,100459.28
2022-09-28T06:22:00.117Z,100454.94
2022-09-28T06:24:27.861Z,100454.06
2022-09-28T06:26:54.978Z,100432.22
2022-09-28T06:29:22.563Z,100439.13
2022-09-28T06:31:49.737Z,100439.09
2022-09-28T06:34:19.369Z,100449.63
2022-09-28T06:36:46.511Z,100444.34
2022-09-28T06:39:14.213Z,100446.94
2022-09-28T06:41:42.070Z,100440.78
2022-09-28T06:44:15.365Z,100444.19
2022-09-28T06:47:06.369Z,100446.00
2022-09-28T06:49:51.455Z,100451.19
2022-09-28T06:52:27.615Z,100453.84
2022-09-28T06:55:16.116Z,100459.06
2022-09-28T06:57:44.776Z,100457.25
2022-09-28T07:00:12.720Z,100456.38
2022-09-28T07:02:40.097Z,100463.34
2022-09-28T07:05:30.127Z,100452.94
2022-09-28T07:08:18.367Z,100470.44
2022-09-28T07:11:08.215Z,100475.69
2022-09-28T07:14:04.564Z,100483.56
2022-09-28T07:16:54.182Z,100477.44
2022-09-28T07:19:19.178Z,100476.59
2022-09-28T07:21:53.979Z,100473.00
2022-09-28T07:24:27.665Z,100469.53
2022-09-28T07:27:13.787Z,100465.06
2022-09-28T07:29:55.173Z,100453.72
2022-09-28T07:32:34.828Z,100465.03
2022-09-28T07:35:20.317Z,100460.72
2022-09-28T07:38:00.645Z,100458.94
2022-09-28T07:40:52.219Z,100465.03
2022-09-28T07:43:21.840Z,100472.00
2022-09-28T07:45:53.244Z,100467.56
2022-09-28T07:48:21.906Z,100464.88
2022-09-28T07:51:00.294Z,100445.69
2022-09-28T07:53:33.511Z,100453.59
2022-09-28T07:56:14.247Z,100463.13
2022-09-28T07:58:53.996Z,100466.63
2022-09-28T08:01:27.167Z,100463.91
2022-09-28T08:03:56.477Z,100445.53
2022-09-28T08:06:24.109Z,100465.50
2022-09-28T08:08:53.196Z,100473.31
2022-09-28T08:11:21.726Z,100454.81
2022-09-28T08:14:11.338Z,100466.22
2022-09-28T08:16:57.317Z,100472.09
2022-09-28T08:20:05.990Z,100472.00
2022-09-28T08:22:33.475Z,100470.16
2022-09-28T08:25:01.463Z,100468.25
2022-09-28T08:27:29.519Z,100461.97
2022-09-28T08:29:56.826Z,100469.88
2022-09-28T08:32:49.692Z,100482.25
2022-09-28T08:35:35.390Z,100482.38
2022-09-28T08:38:26.962Z,100485.91
2022-09-28T08:41:22.550Z,100479.75
2022-09-28T08:44:01.984Z,100494.56
2022-09-28T08:46:53.727Z,100484.88
2022-09-28T08:49:50.544Z,100485.69
2022-09-28T08:52:30.012Z,100495.47
2022-09-28T08:55:31.484Z,100489.53
2022-09-28T08:58:28.497Z,100502.75
2022-09-28T09:00:55.771Z,100494.97
2022-09-28T09:03:33.194Z,100479.19
2022-09-28T09:06:40.036Z,100488.66
2022-09-28T09:10:05.902Z,100498.22
2022-09-28T09:13:03.420Z,100499.03
2022-09-28T09:15:33.535Z,100499.03
2022-09-28T09:18:44.259Z,100490.28
2022-09-28T09:21:47.628Z,100497.31
2022-09-28T09:24:27.643Z,100482.47
2022-09-28T09:27:28.138Z,100471.06
2022-09-28T09:30:07.243Z,100487.69
2022-09-28T09:33:12.774Z,100478.94
2022-09-28T09:36:08.731Z,100474.47
2022-09-28T09:39:33.172Z,100466.41
2022-09-28T09:42:52.509Z,100470.81
2022-09-28T09:45:52.990Z,100459.34
2022-09-28T09:49:02.025Z,100463.63
2022-09-28T09:51:48.212Z,100457.31
2022-09-28T09:54:40.870Z,100448.34
2022-09-28T09:57:24.338Z,100469.44
2022-09-28T10:00:04.457Z,100466.03
2022-09-28T10:03:03.271Z,100469.66
2022-09-28T10:05:39.578Z,100468.66
2022-09-28T10:08:09.759Z,100471.34
2022-09-28T10:10:49.339Z,100457.31
2022-09-28T10:13:18.447Z,100449.22
2022-09-28T10:15:47.776Z,100453.72
2022-09-28T10:18:21.857Z,100458.25
2022-09-28T10:21:14.967Z,100451.94
2022-09-28T10:24:02.888Z,100438.66
2022-09-28T10:26:38.058Z,100445.56
2022-09-28T10:29:17.510Z,100448.59
2022-09-28T10:31:48.624Z,100426.88
2022-09-28T10:34:30.734Z,100461.03
2022-09-28T10:37:11.576Z,100464.94
2022-09-28T10:39:59.212Z,100458.13
2022-09-28T10:42:32.929Z,100458.06
2022-09-28T10:45:23.545Z,100433.63
2022-09-28T10:47:51.571Z,100437.00
2022-09-28T10:50:25.673Z,100443.78
2022-09-28T10:53:30.547Z,100442.75
2022-09-28T10:56:22.944Z,100445.31
2022-09-28T10:58:56.763Z,100440.09
2022-09-28T11:01:33.975Z,100439.03
2022-09-28T11:04:10.702Z,100438.66
2022-09-28T11:06:40.417Z,100412.16
2022-09-28T11:09:32.131Z,100429.66
2022-09-28T11:12:07.456Z,100428.78
2022-09-28T11:14:42.448Z,100427.19
2022-09-28T11:17:28.381Z,100434.47
2022-09-28T11:20:23.549Z,100433.59
2022-09-28T11:23:17.811Z,100440.75
2022-09-28T11:25:58.228Z,100421.53
2022-09-28T11:28:32.841Z,100423.31
2022-09-28T11:31:03.834Z,100430.03
2022-09-28T11:33:51.233Z,100425.81
2022-09-28T11:37:18.310Z,100422.06
2022-09-28T11:39:59.554Z,100424.44
2022-09-28T11:42:43.097Z,100416.97
2022-09-28T11:45:49.432Z,100413.53
2022-09-28T11:48:24.137Z,100391.50
2022-09-28T11:51:03.944Z,100397.06
2022-09-28T11:53:53.499Z,100392.94
2022-09-28T11:56:34.790Z,100398.78
2022-09-28T11:59:27.823Z,100388.88
2022-09-28T12:02:00.298Z,100358.72
2022-09-28T12:05:01.575Z,100377.53
2022-09-28T12:07:44.087Z,100367.34
2022-09-28T12:10:44.692Z,100361.34
2022-09-28T12:13:23.010Z,100367.25
2022-09-28T12:19:16.151Z,100371.25
2022-09-28T12:21:46.640Z,100364.47
2022-09-28T12:24:28.394Z,100344.69
2022-09-28T12:27:10.691Z,100361.44
2022-09-28T12:29:52.063Z,100351.69
2022-09-28T12:32:51.398Z,100353.22
2022-09-28T12:35:43.228Z,100359.97
2022-09-28T12:38:28.589Z,100344.78
2022-09-28T12:41:33.954Z,100355.72
2022-09-28T12:44:25.356Z,100338.53
2022-09-28T12:47:11.208Z,100331.38
2022-09-28T12:53:02.944Z,100342.75
2022-09-28T12:55:37.744Z,100341.13
2022-09-28T12:58:26.873Z,100346.59
2022-09-28T13:01:14.386Z,100337.56
2022-09-28T13:04:13.433Z,100307.75
2022-09-28T13:06:45.133Z,100328.56
2022-09-28T13:09:20.132Z,100332.00
2022-09-28T13:11:54.955Z,100337.91
2022-09-28T13:14:34.300Z,100343.25
2022-09-28T13:17:20.159Z,100322.44
2022-09-28T13:20:14.038Z,100313.16
2022-09-28T13:22:45.971Z,100320.00
2022-09-28T13:25:20.640Z,100302.63
2022-09-28T13:28:06.714Z,100310.44
2022-09-28T13:30:36.682Z,100326.19
2022-09-28T13:33:07.945Z,100320.34
2022-09-28T13:35:35.424Z,100315.97
2022-09-28T13:38:18.782Z,100319.34
2022-09-28T13:41:04.210Z,100317.28
2022-09-28T13:44:01.340Z,100313.16
2022-09-28T13:46:52.871Z,100318.22
2022-09-28T13:49:20.360Z,100315.16
2022-09-28T13:52:05.548Z,100304.97
2022-09-28T13:54:50.625Z,100312.97
2022-09-28T13:57:25.582Z,100301.13
2022-09-28T14:00:11.026Z,100321.50
2022-09-28T14:03:13.460Z,100300.28
2022-09-28T14:05:53.128Z,100308.44
2022-09-28T14:08:40.802Z,100293.03
2022-09-28T14:11:27.222Z,100296.78
2022-09-28T14:14:14.687Z,100305.63
2022-09-28T14:16:43.217Z,100313.66
2022-09-28T14:19:31.883Z,100308.53
2022-09-28T14:22:05.160Z,100305.19
2022-09-28T14:24:50.550Z,100294.28
2022-09-28T14:27:17.812Z,100299.59
2022-09-28T14:29:46.027Z,100299.03
2022-09-28T14:32:14.182Z,100312.38
2022-09-28T14:34:45.116Z,100296.94
2022-09-28T14:37:51.551Z,100296.81
2022-09-28T14:40:47.178Z,100307.50
2022-09-28T14:43:37.197Z,100311.91
2022-09-28T14:46:17.350Z,100312.28
2022-09-28T14:48:55.941Z,100327.47
2022-09-28T14:51:34.038Z,100314.03
2022-09-28T14:54:13.116Z,100328.56
2022-09-28T14:56:49.906Z,100311.47
2022-09-28T14:59:30.460Z,100313.06
2022-09-28T15:02:01.599Z,100314.78
2022-09-28T15:04:31.100Z,100289.50
2022-09-28T15:06:58.370Z,100301.94
2022-09-28T15:09:34.070Z,100303.59
2022-09-28T15:12:25.425Z,100301.13
2022-09-28T15:14:59.668Z,100300.44
2022-09-28T15:17:32.097Z,100297.16
2022-09-28T15:20:37.116Z,100285.19
2022-09-28T15:23:04.437Z,100300.00
2022-09-28T15:25:33.172Z,100290.50
2022-09-28T15:28:13.587Z,100296.34
2022-09-28T15:30:40.979Z,100287.81
2022-09-28T15:33:43.074Z,100305.91
2022-09-28T15:36:16.983Z,100301.56
2022-09-28T15:38:55.962Z,100300.78
2022-09-28T15:41:25.057Z,100304.25
2022-09-28T15:44:10.825Z,100304.09
2022-09-28T15:46:41.849Z,100303.31
2022-09-28T15:49:25.817Z,100307.72
2022-09-28T15:51:58.384Z,100299.75
2022-09-28T15:54:48.933Z,100304.16
2022-09-28T15:57:38.048Z,100301.50
2022-09-28T16:00:28.391Z,100296.81
2022-09-28T16:03:19.317Z,100294.13
2022-09-28T16:06:06.193Z,100288.91
2022-09-28T16:08:33.347Z,100295.72
2022-09-28T16:11:12.911Z,100299.41
2022-09-28T16:14:09.248Z,100298.47
2022-09-28T16:16:49.269Z,100278.53
2022-09-28T16:19:32.693Z,100302.03
2022-09-28T16:22:02.450Z,100309.06
2022-09-28T16:24:34.249Z,100297.72
2022-09-28T16:27:05.433Z,100292.25
2022-09-28T16:29:39.319Z,100313.59
2022-09-28T16:32:25.371Z,100310.22
2022-09-28T16:35:21.974Z,100312.00
2022-09-28T16:37:59.022Z,100299.09
2022-09-28T16:40:27.419Z,100272.34
2022-09-28T16:42:59.772Z,100307.31
2022-09-28T16:45:29.782Z,100308.16
2022-09-28T16:47:58.397Z,100303.03
2022-09-28T16:50:26.562Z,100309.03
2022-09-28T16:53:20.461Z,100310.72
2022-09-28T16:55:49.975Z,100297.78
2022-09-28T16:58:17.286Z,100303.03
2022-09-28T17:00:45.987Z,100302.25
2022-09-28T17:03:18.955Z,100310.09
2022-09-28T17:05:48.732Z,100311.84
2022-09-28T17:08:22.718Z,100317.19
2022-09-28T17:11:14.986Z,100321.56
2022-09-28T17:13:47.382Z,100307.63
2022-09-28T17:16:25.289Z,100310.47
2022-09-28T17:19:18.619Z,100321.00
2022-09-28T17:21:47.139Z,100309.56
2022-09-28T17:24:14.294Z,100323.50
2022-09-28T17:26:44.596Z,100330.63
2022-09-28T17:29:16.174Z,100312.31
2022-09-28T17:31:45.179Z,100315.09
2022-09-28T17:34:15.573Z,100328.19
2022-09-28T17:36:45.845Z,100312.44
2022-09-28T17:39:16.236Z,100299.28
2022-09-28T17:41:43.758Z,100311.47
2022-09-28T17:44:11.315Z,100304.63
2022-09-28T17:46:46.011Z,100319.59
2022-09-28T17:49:14.234Z,100318.66
2022-09-28T17:51:41.540Z,100311.69
2022-09-28T17:54:09.002Z,100320.53
2022-09-28T17:56:36.888Z,100315.28
2022-09-28T17:59:10.461Z,100324.81
2022-09-28T18:01:40.287Z,100318.78
2022-09-28T18:04:22.956Z,100309.34
2022-09-28T18:06:59.754Z,100322.41
2022-09-28T18:09:26.838Z,100322.41
2022-09-28T18:12:01.188Z,100319.75
2022-09-28T18:14:28.699Z,100326.69
2022-09-28T18:16:55.862Z,100332.03
2022-09-28T18:19:23.024Z,100329.56
2022-09-28T18:21:50.140Z,100326.91
2022-09-28T18:24:17.399Z,100323.50
2022-09-28T18:26:44.501Z,100318.91
2022-09-28T18:29:11.591Z,100317.16
2022-09-28T18:31:38.710Z,100316.28
2022-09-28T18:34:06.400Z,100304.00
2022-09-28T18:36:36.318Z,100301.44
2022-09-28T18:39:03.902Z,100325.16
2022-09-28T18:41:31.047Z,100312.97
2022-09-28T18:44:01.155Z,100316.44
2022-09-28T18:46:30.330Z,100308.63
2022-09-28T18:48:57.653Z,100311.22
2022-09-28T18:51:24.792Z,100312.16
2022-09-28T18:53:51.895Z,100310.53
2022-09-28T18:56:21.250Z,100322.75
2022-09-28T18:58:51.928Z,100320.88
2022-09-28T19:01:36.564Z,100321.06
2022-09-28T19:04:07.416Z,100339.44
2022-09-28T19:06:37.239Z,100320.19
2022-09-28T19:09:04.874Z,100325.44
2022-09-28T19:11:32.659Z,100345.63
2022-09-28T19:13:59.815Z,100340.41
2022-09-28T19:16:29.259Z,100351.81
2022-09-28T19:18:58.263Z,100354.53
2022-09-28T19:21:25.853Z,100358.88
2022-09-28T19:23:56.168Z,100345.81
2022-09-28T19:26:25.786Z,100359.00
2022-09-28T19:28:54.080Z,100347.69
2022-09-28T19:31:21.916Z,100352.13
2022-09-28T19:33:49.190Z,100366.09
2022-09-28T19:36:23.898Z,100362.59
2022-09-28T19:38:53.820Z,100374.84
2022-09-28T19:41:44.424Z,100377.44
2022-09-28T19:44:26.559Z,100370.50
2022-09-28T19:46:58.380Z,100374.88
2022-09-28T19:49:27.589Z,100373.09
2022-09-28T19:52:11.949Z,100367.88
2022-09-28T19:54:39.839Z,100367.94
2022-09-28T19:57:09.037Z,100365.31
2022-09-28T19:59:37.717Z,100374.09
2022-09-28T20:02:07.236Z,100369.72
2022-09-28T20:04:35.150Z,100366.25
2022-09-28T20:07:03.861Z,100373.22
2022-09-28T20:09:32.667Z,100379.34
2022-09-28T20:11:59.945Z,100373.19
2022-09-28T20:14:31.990Z,100373.22
2022-09-28T20:17:04.023Z,100381.97
2022-09-28T20:19:31.126Z,100388.09
2022-09-28T20:22:02.956Z,100387.22
2022-09-28T20:24:31.741Z,100392.50
2022-09-28T20:26:59.504Z,100391.63
2022-09-28T20:29:26.971Z,100389.84
2022-09-28T20:31:54.039Z,100392.50
2022-09-28T20:34:21.962Z,100396.94
2022-09-28T20:36:49.146Z,100382.91
2022-09-28T20:39:16.428Z,100389.06
2022-09-28T20:41:43.780Z,100369.84
2022-09-28T20:44:10.884Z,100378.56
2022-09-28T20:46:38.435Z,100372.47
2022-09-28T20:49:07.477Z,100383.00
2022-09-28T20:51:34.813Z,100378.63
2022-09-28T20:54:01.979Z,100382.13
2022-09-28T20:56:34.825Z,100383.03
2022-09-28T20:59:01.900Z,100373.41
2022-09-28T21:01:30.812Z,100375.22
2022-09-28T21:04:00.006Z,100368.22
2022-09-28T21:06:30.019Z,100373.44
2022-09-28T21:08:57.643Z,100384.84
2022-09-28T21:11:26.564Z,100380.47
2022-09-28T21:13:58.812Z,100376.94
2022-09-28T21:16:28.443Z,100383.13
2022-09-28T21:18:56.293Z,100389.25
2022-09-28T21:21:24.526Z,100385.75
2022-09-28T21:23:55.983Z,100379.63
2022-09-28T21:26:26.149Z,100384.06
2022-09-28T21:28:54.394Z,100378.78
2022-09-28T21:31:27.718Z,100375.28
2022-09-28T21:33:58.436Z,100376.16
2022-09-28T21:36:25.995Z,100380.56
2022-09-28T21:38:57.181Z,100367.44
2022-09-28T21:41:28.937Z,100364.81
2022-09-28T21:43:56.783Z,100356.09
2022-09-28T21:46:24.946Z,100372.72
2022-09-28T21:48:53.736Z,100343.00
2022-09-28T21:51:21.790Z,100343.91
2022-09-28T21:53:49.526Z,100370.16
2022-09-28T21:56:17.683Z,100372.78
2022-09-28T21:58:44.869Z,100379.81
2022-09-28T22:01:15.590Z,100378.03
2022-09-28T22:03:44.785Z,100368.44
2022-09-28T22:06:12.317Z,100378.06
2022-09-28T22:08:40.116Z,100357.97
2022-09-28T22:11:11.504Z,100370.19
2022-09-28T22:13:45.771Z,100354.44
2022-09-28T22:16:14.444Z,100366.72
2022-09-28T22:18:42.342Z,100338.72
2022-09-28T22:21:26.166Z,100349.22
2022-09-28T22:23:53.731Z,100354.44
2022-09-28T22:26:25.837Z,100363.22
2022-09-28T22:28:55.877Z,100356.22
2022-09-28T22:31:28.482Z,100363.22
2022-09-28T22:33:56.330Z,100359.72
2022-09-28T22:36:23.943Z,100364.97
2022-09-28T22:38:51.107Z,100362.34
2022-09-28T22:41:23.190Z,100345.69
2022-09-28T22:43:52.210Z,100362.34
2022-09-28T22:46:24.524Z,100362.31
2022-09-28T22:48:54.725Z,100357.06
2022-09-28T22:51:23.261Z,100340.44
2022-09-28T22:53:50.368Z,100355.34
2022-09-28T22:56:19.044Z,100340.44
2022-09-28T22:58:47.378Z,100343.06
2022-09-28T23:01:23.119Z,100348.31
2022-09-28T23:03:52.396Z,100336.06
2022-09-28T23:06:21.988Z,100321.22
2022-09-28T23:08:51.528Z,100319.44
2022-09-28T23:11:19.133Z,100315.94
2022-09-28T23:13:53.709Z,100334.28
2022-09-28T23:16:23.907Z,100313.34
2022-09-28T23:18:51.912Z,100318.59
2022-09-28T23:21:21.552Z,100322.94
2022-09-28T23:23:58.365Z,100315.97
2022-09-28T23:26:28.234Z,100321.19
2022-09-28T23:28:57.333Z,100329.06
2022-09-28T23:31:27.518Z,100312.47
2022-09-28T23:34:03.253Z,100314.22
2022-09-28T23:36:30.824Z,100303.72
2022-09-28T23:38:57.978Z,100289.75
2022-09-28T23:41:25.287Z,100302.00
2022-09-28T23:43:52.495Z,100296.75
2022-09-28T23:46:20.900Z,100300.25
2022-09-28T23:48:49.783Z,100288.91
2022-09-28T23:51:17.530Z,100288.91
2022-09-28T23:53:45.525Z,100302.03
2022-09-28T23:56:13.170Z,100297.66
2022-09-28T23:58:40.285Z,100278.38
